Time;durP1;ratioP1;P1;durP2;ratioP2;P2;SDS_P1;SDS_P2;PMS_P1;PMS_P2;Temp;Humidity;BMP_temperature;BMP_pressure;BME280_temperature;BME280_humidity;BME280_pressure;Samples;Min_cycle;Max_cycle;Signal;HPM_P1;HPM_P2
2021/09/17 00:00:44;;;;;;;58.65;29.67;;;;;;;17.56;74.13;101875.22;5070708;28;20568;-54
2021/09/17 00:03:10;;;;;;;63.00;29.30;;;;;;;17.57;74.01;101876.94;5070017;28;20040;-49
2021/09/17 00:05:35;;;;;;;59.17;28.88;;;;;;;17.59;73.82;101870.81;5069327;28;20063;-50
2021/09/17 00:08:00;;;;;;;49.00;25.05;;;;;;;17.62;73.84;101870.88;5070003;28;20424;-47
2021/09/17 00:10:26;;;;;;;53.88;28.17;;;;;;;17.62;73.57;101870.88;5073614;28;20027;-47
2021/09/17 00:12:51;;;;;;;50.80;25.92;;;;;;;17.63;73.43;101872.59;5048172;28;20036;-47
2021/09/17 00:15:18;;;;;;;54.58;29.15;;;;;;;17.64;73.26;101870.84;5068081;28;20035;-48
2021/09/17 00:17:44;;;;;;;55.85;29.40;;;;;;;17.65;73.58;101867.31;5066851;28;20032;-47
2021/09/17 00:20:11;;;;;;;55.65;28.70;;;;;;;17.66;73.64;101864.69;5052970;28;20024;-52
2021/09/17 00:22:36;;;;;;;59.90;28.95;;;;;;;17.68;73.66;101864.72;5066676;28;20070;-53
2021/09/17 00:25:03;;;;;;;59.42;29.20;;;;;;;17.64;74.13;101861.16;5067900;28;20032;-49
2021/09/17 00:27:28;;;;;;;61.05;28.73;;;;;;;17.65;74.24;101860.28;5062981;28;20093;-51
2021/09/17 00:29:54;;;;;;;63.95;30.80;;;;;;;17.67;74.34;101858.56;5067520;28;20559;-52
2021/09/17 00:32:19;;;;;;;59.67;29.98;;;;;;;17.68;74.15;101857.69;5071705;28;20060;-49
2021/09/17 00:34:44;;;;;;;65.05;30.70;;;;;;;17.66;74.57;101850.63;5064291;28;20492;-48
2021/09/17 00:37:10;;;;;;;63.97;30.13;;;;;;;17.67;74.52;101848.00;5064854;28;20036;-51
2021/09/17 00:39:35;;;;;;;58.10;29.70;;;;;;;17.70;74.26;101853.25;5074163;28;20499;-47
2021/09/17 00:42:01;;;;;;;60.42;29.13;;;;;;;17.70;74.37;101857.66;5064859;28;20048;-51
2021/09/17 00:44:28;;;;;;;51.45;27.25;;;;;;;17.72;74.26;101845.34;5065688;28;20023;-52
2021/09/17 00:46:54;;;;;;;60.17;30.50;;;;;;;17.74;74.46;101848.88;5047133;28;20545;-50
2021/09/17 00:49:19;;;;;;;65.90;31.40;;;;;;;17.73;74.38;101848.00;5072353;28;20027;-51
2021/09/17 00:51:46;;;;;;;61.80;31.17;;;;;;;17.75;74.25;101853.25;5069400;28;20060;-54
2021/09/17 00:54:11;;;;;;;59.85;29.33;;;;;;;17.76;74.13;101845.34;5053149;28;20039;-50
2021/09/17 00:56:36;;;;;;;62.13;31.00;;;;;;;17.76;74.27;101849.72;5053846;28;20036;-50
2021/09/17 00:59:02;;;;;;;61.10;31.35;;;;;;;17.77;74.47;101835.66;5047923;28;20210;-49
2021/09/17 01:01:27;;;;;;;65.50;30.98;;;;;;;17.78;74.30;101840.06;5064099;28;20047;-48
2021/09/17 01:03:53;;;;;;;60.72;29.85;;;;;;;17.85;73.96;101839.19;5068656;28;20085;-48
2021/09/17 01:06:18;;;;;;;66.25;32.25;;;;;;;17.87;74.16;101839.19;5069742;28;20259;-52
2021/09/17 01:08:44;;;;;;;63.92;31.10;;;;;;;17.89;74.03;101827.75;5065027;28;20055;-49
2021/09/17 01:11:09;;;;;;;66.20;30.02;;;;;;;17.90;73.97;101824.22;5048625;28;20028;-50
2021/09/17 01:13:35;;;;;;;58.55;30.23;;;;;;;17.91;73.92;101820.72;5054940;28;20024;-50
2021/09/17 01:16:00;;;;;;;61.40;30.65;;;;;;;17.91;73.71;101823.34;5042782;28;20034;-50
2021/09/17 01:18:27;;;;;;;61.63;29.83;;;;;;;17.92;73.65;101817.19;5065359;28;20032;-48
2021/09/17 01:20:58;;;;;;;52.50;27.50;;;;;;;17.93;73.68;101820.72;5062885;28;20059;-48
2021/09/17 01:23:24;;;;;;;61.33;29.10;;;;;;;17.86;74.08;101817.22;5063810;28;21684;-47
2021/09/17 01:25:49;;;;;;;61.03;30.30;;;;;;;17.88;74.06;101807.50;5072596;28;20016;-48
2021/09/17 01:28:22;;;;;;;61.97;30.10;;;;;;;17.88;74.30;101809.28;5065682;28;20047;-47
2021/09/17 01:30:48;;;;;;;62.33;28.67;;;;;;;17.89;73.95;101804.00;5067792;28;20088;-48
2021/09/17 01:33:13;;;;;;;62.88;31.08;;;;;;;17.87;74.09;101805.75;5068663;28;20032;-48
2021/09/17 01:35:38;;;;;;;64.13;32.33;;;;;;;17.88;74.38;101804.00;5068794;28;20137;-48
2021/09/17 01:38:04;;;;;;;69.22;32.10;;;;;;;17.79;74.17;101797.88;5066528;28;20519;-47
2021/09/17 01:40:29;;;;;;;66.47;30.65;;;;;;;17.76;74.19;101797.88;5070463;28;20038;-47
2021/09/17 01:42:54;;;;;;;61.00;28.63;;;;;;;17.81;74.11;101793.47;5073193;28;20398;-47
2021/09/17 01:45:20;;;;;;;60.25;31.90;;;;;;;17.79;74.03;101797.88;5069685;28;20062;-48
2021/09/17 01:47:46;;;;;;;64.53;32.08;;;;;;;17.79;74.11;101794.34;5050505;28;20063;-47
2021/09/17 01:50:11;;;;;;;63.13;31.17;;;;;;;17.79;73.97;101792.59;5070085;28;20108;-47
2021/09/17 01:52:37;;;;;;;64.13;30.33;;;;;;;17.81;74.18;101793.47;5034956;28;20319;-47
2021/09/17 01:55:05;;;;;;;61.35;30.25;;;;;;;17.83;73.97;101789.06;5070786;28;20534;-51
2021/09/17 01:57:30;;;;;;;53.05;26.73;;;;;;;17.92;73.62;101787.31;5067254;28;20119;-48
2021/09/17 01:59:56;;;;;;;53.63;28.00;;;;;;;17.92;73.16;101777.63;5075862;28;20307;-49
2021/09/17 02:02:21;;;;;;;57.53;29.17;;;;;;;17.89;72.80;101780.25;5071741;28;20108;-49
2021/09/17 02:04:46;;;;;;;49.17;25.08;;;;;;;17.94;72.99;101780.25;5068209;28;20052;-47
2021/09/17 02:07:12;;;;;;;50.08;26.95;;;;;;;17.95;72.66;101774.09;5053307;28;20207;-47
2021/09/17 02:09:38;;;;;;;50.20;25.80;;;;;;;17.98;72.36;101784.66;5073440;28;20329;-48
2021/09/17 02:12:04;;;;;;;46.83;24.95;;;;;;;17.98;72.18;101776.72;5071467;28;20413;-49
2021/09/17 02:14:30;;;;;;;44.53;24.52;;;;;;;18.02;72.25;101779.34;5071752;28;20123;-48
2021/09/17 02:16:55;;;;;;;54.08;26.75;;;;;;;18.01;72.33;101776.72;5071222;28;20329;-48
2021/09/17 02:19:21;;;;;;;58.83;29.05;;;;;;;17.97;72.79;101773.22;5068642;28;20454;-47
2021/09/17 02:21:49;;;;;;;54.40;27.92;;;;;;;18.02;72.51;101766.16;5069765;28;20499;-48
2021/09/17 02:24:15;;;;;;;53.78;28.48;;;;;;;18.08;72.14;101771.41;5070767;28;20023;-49
2021/09/17 02:26:40;;;;;;;56.05;29.58;;;;;;;18.09;72.29;101767.03;5071805;28;20054;-48
2021/09/17 02:29:05;;;;;;;56.83;28.77;;;;;;;18.12;72.19;101770.50;5068948;28;20391;-51
2021/09/17 02:31:31;;;;;;;53.90;27.60;;;;;;;18.14;72.21;101768.75;5051875;28;20048;-48
2021/09/17 02:33:56;;;;;;;62.95;30.63;;;;;;;18.13;72.49;101763.47;5063518;28;20386;-46
2021/09/17 02:36:21;;;;;;;58.80;30.08;;;;;;;18.13;72.42;101763.47;5070536;28;20062;-49
2021/09/17 02:38:48;;;;;;;57.90;29.27;;;;;;;18.12;72.50;101767.00;5068277;28;20106;-47
2021/09/17 02:41:13;;;;;;;62.83;30.85;;;;;;;18.12;72.27;101759.97;5052732;28;20035;-47
2021/09/17 02:43:39;;;;;;;55.30;27.80;;;;;;;18.11;72.33;101758.19;5066410;28;20028;-47
2021/09/17 02:46:04;;;;;;;56.95;28.25;;;;;;;18.12;72.26;101749.41;5072006;28;20459;-49
2021/09/17 02:48:30;;;;;;;56.00;28.67;;;;;;;18.24;71.51;101745.84;5066581;28;20088;-49
2021/09/17 02:50:55;;;;;;;53.20;27.75;;;;;;;18.25;71.43;101744.94;5066918;28;20447;-50
2021/09/17 02:53:21;;;;;;;53.03;27.35;;;;;;;18.28;71.54;101737.03;5058939;28;20028;-49
2021/09/17 02:55:46;;;;;;;53.78;27.45;;;;;;;18.29;71.56;101737.91;5070071;28;20119;-52
2021/09/17 02:58:11;;;;;;;53.55;28.27;;;;;;;18.33;71.33;101735.25;5068279;28;20020;-47
2021/09/17 03:00:39;;;;;;;55.92;29.33;;;;;;;18.33;71.58;101722.06;5062467;28;20155;-54
2021/09/17 03:03:05;;;;;;;50.95;26.88;;;;;;;18.37;71.56;101722.91;5065176;28;20114;-48
2021/09/17 03:05:30;;;;;;;56.17;29.38;;;;;;;18.39;71.29;101718.50;5067217;28;20403;-50
2021/09/17 03:07:55;;;;;;;56.33;28.13;;;;;;;18.37;71.63;101714.97;5069174;28;20035;-47
2021/09/17 03:10:21;;;;;;;55.17;29.00;;;;;;;18.36;71.54;101710.59;5066906;28;20027;-48
2021/09/17 03:12:46;;;;;;;61.65;30.20;;;;;;;18.37;71.53;101712.34;5067662;28;20055;-48
2021/09/17 03:15:12;;;;;;;58.65;29.52;;;;;;;18.37;71.62;101709.69;5069379;28;20551;-48
2021/09/17 03:17:37;;;;;;;52.38;25.83;;;;;;;18.27;72.04;101703.59;5050947;28;20028;-48
2021/09/17 03:20:03;;;;;;;60.63;30.38;;;;;;;18.22;72.04;101703.63;5067750;28;20024;-47
2021/09/17 03:22:28;;;;;;;62.85;31.50;;;;;;;18.23;72.14;101705.38;5077693;28;20704;-47
2021/09/17 03:24:54;;;;;;;60.88;30.75;;;;;;;18.20;72.50;101702.75;5075087;28;20240;-49
2021/09/17 03:27:19;;;;;;;65.70;31.45;;;;;;;18.32;72.26;101693.00;5074215;28;20455;-50
2021/09/17 03:29:45;;;;;;;65.22;32.13;;;;;;;18.36;72.02;101694.78;5073284;28;20039;-48
2021/09/17 03:32:10;;;;;;;71.15;33.67;;;;;;;18.32;72.30;101695.66;5072455;28;20123;-48
2021/09/17 03:34:35;;;;;;;63.10;31.73;;;;;;;18.38;72.06;101692.97;5073890;28;20060;-47
2021/09/17 03:37:01;;;;;;;75.47;34.17;;;;;;;18.27;72.46;101697.44;5073181;28;20028;-50
2021/09/17 03:39:27;;;;;;;69.43;31.55;;;;;;;18.24;72.45;101695.69;5069802;28;20484;-51
2021/09/17 03:41:52;;;;;;;64.97;31.45;;;;;;;18.32;72.04;101693.88;5072533;28;20118;-51
2021/09/17 03:44:18;;;;;;;72.05;33.92;;;;;;;18.45;71.64;101692.94;5075446;28;20165;-51
2021/09/17 03:46:47;;;;;;;77.00;35.92;;;;;;;18.37;72.58;101689.44;5055558;28;20439;-54
2021/09/17 03:49:13;;;;;;;76.18;34.28;;;;;;;18.46;72.21;101694.69;5074361;28;20028;-53
2021/09/17 03:51:38;;;;;;;77.85;36.03;;;;;;;18.42;72.25;101690.31;5066682;28;20024;-51
2021/09/17 03:54:04;;;;;;;74.47;33.72;;;;;;;18.46;72.54;101692.06;5070145;28;20483;-49
2021/09/17 03:56:29;;;;;;;77.78;34.90;;;;;;;18.35;72.76;101685.09;5075340;28;20394;-47
2021/09/17 03:58:54;;;;;;;78.60;34.60;;;;;;;18.39;72.88;101686.81;5055502;28;20674;-48
2021/09/17 04:01:20;;;;;;;88.55;39.50;;;;;;;18.38;72.86;101692.97;5074183;28;20035;-51
2021/09/17 04:03:45;;;;;;;89.60;40.25;;;;;;;18.40;72.77;101686.81;5070494;28;20114;-47
2021/09/17 04:06:10;;;;;;;87.22;39.28;;;;;;;18.43;72.78;101680.63;5071646;28;20030;-50
2021/09/17 04:08:36;;;;;;;89.75;39.90;;;;;;;18.42;72.64;101689.44;5074732;28;20111;-49
2021/09/17 04:11:01;;;;;;;85.88;38.47;;;;;;;18.42;72.55;101682.38;5076779;28;20020;-48
2021/09/17 04:13:27;;;;;;;83.28;36.15;;;;;;;18.43;72.64;101688.53;5074638;28;20106;-50
2021/09/17 04:15:52;;;;;;;84.80;38.65;;;;;;;18.41;72.73;101688.56;5070783;28;20026;-48
2021/09/17 04:18:18;;;;;;;82.75;37.72;;;;;;;18.33;73.17;101695.66;5072862;28;20032;-49
2021/09/17 04:20:43;;;;;;;86.57;38.83;;;;;;;18.27;73.20;101693.03;5063242;28;20035;-49
2021/09/17 04:23:08;;;;;;;83.97;36.25;;;;;;;18.28;72.98;101689.53;5072212;28;20028;-50
2021/09/17 04:25:34;;;;;;;89.85;39.10;;;;;;;18.33;72.85;101690.38;5073753;28;20162;-48
2021/09/17 04:27:59;;;;;;;90.78;39.70;;;;;;;18.35;72.91;101685.97;5067601;28;20048;-49
2021/09/17 04:30:25;;;;;;;78.75;35.78;;;;;;;18.41;73.00;101682.41;5067759;28;20070;-49
2021/09/17 04:32:51;;;;;;;90.68;38.50;;;;;;;18.39;72.68;101689.44;5069956;28;20435;-49
2021/09/17 04:35:17;;;;;;;84.88;36.50;;;;;;;18.40;73.04;101692.09;5069434;28;20043;-48
2021/09/17 04:37:44;;;;;;;92.20;38.25;;;;;;;18.38;72.90;101690.34;5042723;28;20032;-47
2021/09/17 04:40:11;;;;;;;95.07;40.30;;;;;;;18.36;73.08;101682.41;5071363;28;20035;-47
2021/09/17 04:42:37;;;;;;;87.03;37.10;;;;;;;18.33;73.15;101689.50;5069927;28;20269;-48
2021/09/17 04:45:03;;;;;;;102.90;42.65;;;;;;;18.33;73.36;101695.66;5049967;28;20039;-49
2021/09/17 04:47:29;;;;;;;97.30;40.95;;;;;;;18.38;73.29;101682.41;5070345;28;20487;-47
2021/09/17 04:49:54;;;;;;;93.25;38.28;;;;;;;18.38;73.21;101685.94;5070309;28;20152;-48
2021/09/17 04:52:21;;;;;;;88.85;37.42;;;;;;;18.41;72.85;101685.94;5066059;28;20028;-48
2021/09/17 04:54:47;;;;;;;80.13;35.75;;;;;;;18.36;73.21;101679.78;5052782;28;20650;-50
2021/09/17 04:57:13;;;;;;;93.15;40.58;;;;;;;18.33;73.21;101690.38;5071285;28;20444;-47
2021/09/17 04:59:38;;;;;;;91.70;38.80;;;;;;;18.35;73.21;101679.81;5065785;28;20626;-47
2021/09/17 05:02:03;;;;;;;91.78;37.55;;;;;;;18.35;73.17;101688.59;5073421;28;20070;-47
2021/09/17 05:04:29;;;;;;;87.15;37.50;;;;;;;18.31;73.14;101688.59;5072917;28;20028;-49
2021/09/17 05:06:54;;;;;;;85.18;37.10;;;;;;;18.25;73.20;101686.88;5065347;28;20084;-50
2021/09/17 05:09:20;;;;;;;94.07;37.80;;;;;;;18.19;73.37;101692.19;5067081;28;20135;-49
2021/09/17 05:11:45;;;;;;;94.72;39.25;;;;;;;18.14;73.75;101692.22;5070973;28;20032;-49
2021/09/17 05:14:11;;;;;;;83.25;33.90;;;;;;;18.16;73.25;101692.22;5070713;28;20119;-51
2021/09/17 05:16:37;;;;;;;92.80;38.80;;;;;;;18.08;73.37;101700.16;5072543;28;20032;-52
2021/09/17 05:19:03;;;;;;;87.82;35.65;;;;;;;18.07;73.31;101686.97;5067783;28;20177;-46
2021/09/17 05:21:28;;;;;;;74.53;31.73;;;;;;;18.02;73.35;101691.41;5074713;28;20507;-48
2021/09/17 05:23:53;;;;;;;86.22;35.05;;;;;;;17.97;73.50;101694.06;5067628;28;20697;-51
2021/09/17 05:26:19;;;;;;;92.18;37.05;;;;;;;17.95;73.74;101689.66;5051534;28;20357;-49
2021/09/17 05:28:44;;;;;;;94.60;36.30;;;;;;;17.89;73.92;101689.69;5044604;28;20024;-49
2021/09/17 05:31:09;;;;;;;86.70;33.75;;;;;;;17.84;74.29;101684.44;5066777;28;20029;-47
2021/09/17 05:33:35;;;;;;;102.00;39.30;;;;;;;17.87;74.09;101691.47;5071735;28;20030;-50
2021/09/17 05:36:00;;;;;;;89.90;35.72;;;;;;;17.89;74.14;101692.31;5065174;28;20050;-48
2021/09/17 05:38:25;;;;;;;89.60;35.78;;;;;;;17.88;74.19;101688.81;5066834;28;20032;-46
2021/09/17 05:40:51;;;;;;;88.55;35.53;;;;;;;17.93;74.48;101692.28;5069488;28;20056;-49
2021/09/17 05:43:16;;;;;;;90.72;34.72;;;;;;;17.95;74.10;101693.19;5072581;28;20109;-52
2021/09/17 05:45:42;;;;;;;100.82;39.53;;;;;;;17.99;74.29;101688.78;5073012;28;20038;-48
2021/09/17 05:48:08;;;;;;;96.07;37.10;;;;;;;18.06;73.98;101693.13;5068652;28;20095;-51
2021/09/17 05:50:34;;;;;;;98.05;37.53;;;;;;;18.06;74.27;101694.00;5070552;28;20035;-50
2021/09/17 05:52:59;;;;;;;93.38;38.65;;;;;;;18.10;73.93;101693.13;5062143;28;20452;-51
2021/09/17 05:55:27;;;;;;;94.07;36.90;;;;;;;18.13;73.86;101698.38;5067553;28;20604;-48
2021/09/17 05:57:54;;;;;;;93.13;38.22;;;;;;;18.09;73.89;101701.06;5069616;28;20040;-52
2021/09/17 06:00:19;;;;;;;95.47;38.90;;;;;;;18.14;73.75;101700.13;5068593;28;20032;-51
2021/09/17 06:02:45;;;;;;;95.18;39.05;;;;;;;18.13;73.84;101695.75;5066952;28;20035;-48
2021/09/17 06:05:10;;;;;;;87.93;35.72;;;;;;;18.18;73.65;101693.06;5061924;28;20024;-48
2021/09/17 06:07:40;;;;;;;97.05;38.47;;;;;;;18.22;73.37;101690.44;5068814;28;20301;-48
2021/09/17 06:10:06;;;;;;;87.30;36.47;;;;;;;18.28;73.38;101692.16;5067167;28;20065;-48
2021/09/17 06:12:31;;;;;;;92.90;37.60;;;;;;;18.32;73.31;101693.00;5060880;28;20379;-48
2021/09/17 06:14:57;;;;;;;95.30;38.50;;;;;;;18.41;73.18;101687.69;5048918;28;20035;-51
2021/09/17 06:17:22;;;;;;;91.32;37.70;;;;;;;18.47;72.57;101692.94;5048072;28;20179;-49
2021/09/17 06:19:48;;;;;;;81.50;36.22;;;;;;;18.57;72.63;101690.25;5069169;28;20034;-49
2021/09/17 06:22:13;;;;;;;89.05;35.92;;;;;;;18.61;72.14;101696.38;5068167;28;20535;-50
2021/09/17 06:24:39;;;;;;;83.45;35.83;;;;;;;18.58;72.13;101694.66;5047891;28;20036;-47
2021/09/17 06:27:05;;;;;;;74.72;33.72;;;;;;;18.59;72.47;101696.41;5067596;28;20020;-48
2021/09/17 06:29:30;;;;;;;83.47;36.60;;;;;;;18.55;72.55;101694.66;5034979;28;20032;-51
2021/09/17 06:31:56;;;;;;;84.68;37.22;;;;;;;18.61;72.72;101691.09;5069116;28;20314;-48
2021/09/17 06:34:21;;;;;;;82.85;36.42;;;;;;;18.76;72.11;101700.69;5065445;28;20652;-49
2021/09/17 06:36:49;;;;;;;82.90;36.28;;;;;;;18.81;71.72;101688.31;5069470;28;20579;-50
2021/09/17 06:39:17;;;;;;;84.57;37.55;;;;;;;18.90;71.34;101688.28;5049559;28;20035;-50
2021/09/17 06:41:42;;;;;;;81.38;37.33;;;;;;;18.95;71.32;101691.75;5072287;28;20525;-48
2021/09/17 06:44:08;;;;;;;79.82;37.72;;;;;;;18.93;71.50;101697.03;5064182;28;20028;-51
2021/09/17 06:46:33;;;;;;;80.97;37.47;;;;;;;19.08;71.31;101690.75;5051781;28;20375;-50
2021/09/17 06:48:58;;;;;;;72.95;36.20;;;;;;;19.17;70.33;101690.66;5064079;28;20024;-48
2021/09/17 06:51:24;;;;;;;74.00;35.08;;;;;;;19.30;70.33;101696.72;5065718;28;20574;-50
2021/09/17 06:53:49;;;;;;;77.55;35.53;;;;;;;19.46;69.87;101693.06;5069123;28;20478;-51
2021/09/17 06:56:15;;;;;;;77.20;35.28;;;;;;;19.58;69.78;101695.56;5073534;28;20073;-49
2021/09/17 06:58:40;;;;;;;78.45;36.25;;;;;;;19.71;69.42;101698.97;5073691;28;20034;-50
2021/09/17 07:01:05;;;;;;;73.05;35.88;;;;;;;19.85;68.44;101689.09;5074172;28;20536;-50
2021/09/17 07:03:31;;;;;;;73.65;36.95;;;;;;;19.98;67.92;101695.13;5069823;28;20032;-51
2021/09/17 07:05:56;;;;;;;74.03;35.67;;;;;;;20.21;67.84;101688.63;5054176;28;20062;-51
2021/09/17 07:08:23;;;;;;;70.50;35.38;;;;;;;20.41;67.26;101690.19;5068425;28;20060;-50
2021/09/17 07:10:49;;;;;;;70.47;36.05;;;;;;;20.61;66.51;101688.13;5053281;28;20034;-48
2021/09/17 07:13:15;;;;;;;72.60;36.08;;;;;;;20.73;66.31;101693.25;5071919;28;20036;-52
2021/09/17 07:15:41;;;;;;;70.63;35.83;;;;;;;20.72;66.32;101682.66;5070968;28;20028;-50
2021/09/17 07:18:07;;;;;;;76.88;36.85;;;;;;;20.86;65.92;101692.13;5071576;28;20456;-49
2021/09/17 07:20:34;;;;;;;74.47;37.08;;;;;;;20.98;65.62;101696.38;5070096;28;20491;-52
2021/09/17 07:23:00;;;;;;;75.40;37.33;;;;;;;20.91;66.07;101690.28;5075383;28;20036;-48
2021/09/17 07:25:26;;;;;;;73.38;36.35;;;;;;;21.04;65.89;101689.16;5037322;28;20046;-49
2021/09/17 07:27:51;;;;;;;73.90;36.78;;;;;;;21.19;64.89;101684.53;5072259;28;20043;-53
2021/09/17 07:30:17;;;;;;;71.60;36.50;;;;;;;21.23;64.82;101691.53;5068833;28;20116;-47
2021/09/17 07:32:43;;;;;;;77.93;37.10;;;;;;;21.27;65.02;101688.81;5070452;28;20223;-48
2021/09/17 07:35:09;;;;;;;77.18;37.97;;;;;;;21.20;65.07;101683.66;5063689;28;20028;-50
2021/09/17 07:37:34;;;;;;;75.05;36.40;;;;;;;21.30;65.10;101690.53;5070270;28;20464;-48
2021/09/17 07:39:59;;;;;;;81.15;39.05;;;;;;;21.24;65.46;101688.88;5052247;28;20484;-47
2021/09/17 07:42:25;;;;;;;76.07;38.63;;;;;;;21.15;65.41;101686.38;5051374;28;20114;-50
2021/09/17 07:44:50;;;;;;;72.18;37.45;;;;;;;21.36;65.21;101688.63;5053914;28;20400;-47
2021/09/17 07:47:16;;;;;;;77.43;37.42;;;;;;;21.51;64.65;101684.84;5071360;28;20398;-48
2021/09/17 07:49:41;;;;;;;76.35;37.88;;;;;;;21.61;64.57;101688.19;5070706;28;20063;-53
2021/09/17 07:52:07;;;;;;;73.43;37.28;;;;;;;21.89;63.14;101691.19;5055784;28;20032;-50
2021/09/17 07:54:32;;;;;;;71.80;37.42;;;;;;;22.09;63.17;101683.69;5067768;28;20064;-51
2021/09/17 07:56:58;;;;;;;70.75;36.85;;;;;;;22.18;62.25;101696.78;5075942;28;20028;-49
2021/09/17 07:59:23;;;;;;;70.03;35.65;;;;;;;22.41;61.81;101689.19;5066431;28;20141;-48
2021/09/17 08:01:49;;;;;;;70.43;36.50;;;;;;;22.35;62.96;101684.00;5070173;28;20169;-48
2021/09/17 08:04:14;;;;;;;68.43;34.60;;;;;;;22.44;62.02;101693.56;5074024;28;20016;-50
2021/09/17 08:06:40;;;;;;;68.90;34.83;;;;;;;22.42;61.98;101688.28;5052475;28;20020;-48
2021/09/17 08:09:06;;;;;;;69.85;34.17;;;;;;;22.43;62.58;101697.13;5070415;28;20114;-51
2021/09/17 08:11:32;;;;;;;71.97;34.88;;;;;;;22.34;62.53;101694.66;5053784;28;20114;-50
2021/09/17 08:13:58;;;;;;;70.30;33.50;;;;;;;22.09;63.84;101691.66;5070022;28;20106;-51
2021/09/17 08:16:23;;;;;;;70.28;34.67;;;;;;;22.39;63.16;101698.97;5051351;28;20098;-52
2021/09/17 08:18:48;;;;;;;65.13;32.33;;;;;;;22.74;62.36;101692.88;5069059;28;20490;-51
2021/09/17 08:21:14;;;;;;;67.70;33.25;;;;;;;22.64;62.34;101701.94;5069324;28;20028;-50
2021/09/17 08:23:39;;;;;;;62.47;31.75;;;;;;;22.95;60.87;101707.44;5066644;28;20033;-52
2021/09/17 08:26:06;;;;;;;66.82;32.60;;;;;;;23.02;60.19;101706.38;5050648;28;20533;-47
2021/09/17 08:28:32;;;;;;;68.93;33.00;;;;;;;22.58;63.59;101705.59;5065913;28;20016;-50
2021/09/17 08:30:57;;;;;;;69.72;33.90;;;;;;;22.62;62.21;101706.44;5069688;28;20365;-52
2021/09/17 08:33:23;;;;;;;68.03;32.80;;;;;;;22.87;62.48;101715.59;5066045;28;20085;-52
2021/09/17 08:35:48;;;;;;;63.95;31.50;;;;;;;23.14;61.79;101706.06;5068851;28;20415;-51
2021/09/17 08:38:14;;;;;;;57.80;30.00;;;;;;;23.30;59.51;101707.41;5072334;28;20032;-52
2021/09/17 08:40:40;;;;;;;61.33;31.35;;;;;;;23.49;59.43;101714.94;5066429;28;20032;-52
2021/09/17 08:43:06;;;;;;;56.05;30.40;;;;;;;23.94;58.45;101707.47;5047241;28;20115;-49
2021/09/17 08:45:31;;;;;;;61.95;32.20;;;;;;;23.76;57.67;101709.75;5066847;28;20365;-52
2021/09/17 08:47:57;;;;;;;62.90;32.78;;;;;;;23.22;60.34;101712.06;5069299;28;20283;-47
2021/09/17 08:50:23;;;;;;;60.55;31.77;;;;;;;23.57;58.16;101721.81;5066299;28;20027;-50
2021/09/17 08:52:49;;;;;;;59.22;32.63;;;;;;;23.21;58.60;101712.97;5067123;28;20032;-51
2021/09/17 08:55:15;;;;;;;59.13;30.98;;;;;;;23.32;59.62;101713.56;5070354;28;20024;-52
2021/09/17 08:57:47;;;;;;;61.88;31.88;;;;;;;23.23;59.66;101713.81;5066808;28;20515;-52
2021/09/17 09:00:29;;;;;;;57.38;31.13;;;;;;;23.49;59.09;101713.16;5048740;28;20135;-53
2021/09/17 09:02:56;;;;;;;57.40;30.48;;;;;;;23.24;59.39;101715.53;5066404;28;20032;-55
2021/09/17 09:05:35;;;;;;;54.95;29.80;;;;;;;23.33;58.90;101717.97;5069386;28;20035;-51
2021/09/17 09:08:02;;;;;;;54.42;30.67;;;;;;;23.17;61.08;101713.09;5049377;28;20431;-50
2021/09/17 09:10:28;;;;;;;54.08;29.92;;;;;;;23.24;60.16;101720.00;5068779;28;20028;-52
2021/09/17 09:12:56;;;;;;;52.00;29.65;;;;;;;23.37;59.48;101719.63;5070691;28;20385;-50
2021/09/17 09:15:30;;;;;;;49.00;29.58;;;;;;;23.75;57.98;101718.66;5069330;28;20446;-54
2021/09/17 09:17:59;;;;;;;47.15;28.30;;;;;;;24.06;57.16;101705.34;5066249;28;21500;-51
2021/09/17 09:20:25;;;;;;;47.97;28.98;;;;;;;24.04;57.32;101712.50;5068291;28;20097;-49
2021/09/17 09:23:11;;;;;;;44.00;26.98;;;;;;;24.15;58.21;101713.03;5070391;28;20131;-50
2021/09/17 09:26:02;;;;;;;45.40;26.73;;;;;;;24.54;55.92;101711.00;5070564;28;20110;-50
2021/09/17 09:28:39;;;;;;;42.28;26.35;;;;;;;24.78;54.48;101709.34;5065852;28;20059;-52
2021/09/17 09:31:06;;;;;;;41.22;24.80;;;;;;;25.14;54.05;101703.75;5047879;28;20320;-51
2021/09/17 09:33:41;;;;;;;35.50;21.98;;;;;;;25.32;53.41;101706.66;5068486;28;20500;-48
2021/09/17 09:36:09;;;;;;;35.17;23.20;;;;;;;25.06;53.86;101701.38;5063357;28;20038;-47
2021/09/17 09:38:35;;;;;;;32.05;21.00;;;;;;;24.99;54.11;101715.81;5067308;28;20098;-51
2021/09/17 09:41:02;;;;;;;32.47;20.30;;;;;;;24.86;54.65;101706.44;5070795;28;20031;-50
2021/09/17 09:43:32;;;;;;;30.48;19.25;;;;;;;24.69;52.77;101709.66;5028964;28;20035;-50
2021/09/17 09:46:24;;;;;;;31.05;18.35;;;;;;;24.35;53.92;101712.50;5050182;28;20023;-51
2021/09/17 09:48:58;;;;;;;25.33;17.48;;;;;;;24.22;53.62;101700.44;5064711;28;20020;-48
2021/09/17 09:51:24;;;;;;;24.27;16.88;;;;;;;24.13;53.83;101706.03;5066269;28;20042;-48
2021/09/17 09:53:50;;;;;;;26.75;16.63;;;;;;;24.19;53.31;101700.56;5070193;28;20420;-51
2021/09/17 09:56:15;;;;;;;23.38;16.45;;;;;;;24.33;53.61;101697.47;5050304;28;20051;-50
2021/09/17 09:58:41;;;;;;;25.75;16.63;;;;;;;24.46;54.01;101696.16;5073034;28;20107;-48
2021/09/17 10:01:07;;;;;;;28.00;15.48;;;;;;;24.61;52.46;101699.22;5049439;28;20040;-48
2021/09/17 10:03:32;;;;;;;20.30;15.05;;;;;;;24.92;51.20;101704.47;5047927;28;21195;-51
2021/09/17 10:05:58;;;;;;;21.70;16.08;;;;;;;25.05;52.04;101699.63;5047136;28;20100;-50
2021/09/17 10:08:23;;;;;;;21.38;14.77;;;;;;;25.17;52.25;101695.66;5048182;28;20381;-50
2021/09/17 10:10:48;;;;;;;22.85;15.13;;;;;;;25.49;51.95;101706.09;5067985;28;20640;-52
2021/09/17 10:13:14;;;;;;;24.73;16.05;;;;;;;25.93;49.71;101695.59;5067865;28;20028;-52
2021/09/17 10:15:39;;;;;;;23.80;17.17;;;;;;;26.20;49.58;101706.16;5069576;28;20064;-49
2021/09/17 10:18:05;;;;;;;21.90;15.40;;;;;;;26.17;48.96;101698.22;5045623;28;20107;-52
2021/09/17 10:20:37;;;;;;;23.42;16.25;;;;;;;26.17;49.96;101700.91;5053476;28;20099;-49
2021/09/17 10:23:26;;;;;;;23.92;16.17;;;;;;;26.01;51.41;101701.56;5066697;28;20036;-52
2021/09/17 10:26:09;;;;;;;19.23;14.30;;;;;;;26.19;50.42;101701.72;5069082;28;20024;-48
2021/09/17 10:29:06;;;;;;;16.88;11.25;;;;;;;26.11;49.54;101702.94;5062049;28;20039;-51
2021/09/17 10:31:45;;;;;;;12.65;9.65;;;;;;;25.71;49.39;101703.56;5070732;28;20039;-51
2021/09/17 10:34:32;;;;;;;12.23;8.18;;;;;;;25.60;48.46;101692.41;5046095;28;20042;-49
2021/09/17 10:36:58;;;;;;;13.68;8.20;;;;;;;25.66;47.04;101686.84;5067465;28;20701;-52
2021/09/17 10:39:23;;;;;;;8.75;6.50;;;;;;;25.78;47.95;101681.91;5069268;28;20196;-51
2021/09/17 10:42:04;;;;;;;10.50;6.80;;;;;;;26.03;48.49;101686.34;5071597;28;20069;-49
2021/09/17 10:44:30;;;;;;;10.27;6.28;;;;;;;26.20;47.19;101676.75;5070352;28;20032;-53
2021/09/17 10:46:55;;;;;;;8.95;6.60;;;;;;;26.34;47.20;101681.59;5071119;28;20035;-49
2021/09/17 10:49:21;;;;;;;12.25;6.32;;;;;;;26.46;47.00;101686.47;5072460;28;20024;-48
2021/09/17 10:51:46;;;;;;;6.85;4.88;;;;;;;26.51;46.43;101684.47;5072113;28;20081;-52
2021/09/17 10:54:12;;;;;;;9.98;4.70;;;;;;;26.75;46.85;101685.28;5070253;28;20032;-48
2021/09/17 10:57:02;;;;;;;6.38;4.00;;;;;;;26.83;46.16;101685.84;5071759;28;20473;-52
2021/09/17 10:59:39;;;;;;;12.23;4.30;;;;;;;26.99;44.10;101686.09;5061454;28;20043;-47
2021/09/17 11:02:06;;;;;;;8.02;4.03;;;;;;;26.82;45.67;101683.22;5076454;28;20659;-50
2021/09/17 11:04:33;;;;;;;5.43;3.50;;;;;;;26.66;46.55;101688.31;5070070;28;20367;-51
2021/09/17 11:07:21;;;;;;;4.47;3.00;;;;;;;26.60;45.89;101685.88;5063967;28;20016;-50